createdAt,value
2022-12-03T00:01:50.327Z,5.30
2022-12-03T00:04:17.227Z,6.93
2022-12-03T00:06:44.101Z,8.53
2022-12-03T00:09:10.900Z,6.67
2022-12-03T00:11:37.894Z,5.33
2022-12-03T00:14:04.789Z,6.63
2022-12-03T00:16:31.652Z,8.10
2022-12-03T00:18:58.434Z,7.13
2022-12-03T00:21:25.225Z,7.40
2022-12-03T00:23:52.080Z,8.03
2022-12-03T00:26:19.955Z,9.10
2022-12-03T00:28:47.118Z,7.23
2022-12-03T00:31:13.978Z,4.70
2022-12-03T00:33:40.808Z,8.03
2022-12-03T00:36:08.089Z,9.80
2022-12-03T00:38:34.850Z,10.17
2022-12-03T00:41:01.622Z,8.77
2022-12-03T00:43:28.352Z,7.20
2022-12-03T00:45:55.176Z,8.47
2022-12-03T00:48:21.996Z,8.87
2022-12-03T00:50:48.768Z,8.00
2022-12-03T00:53:15.501Z,8.70
2022-12-03T00:55:42.293Z,4.23
2022-12-03T00:58:09.475Z,7.90
2022-12-03T01:00:37.055Z,6.67
2022-12-03T01:03:04.548Z,7.53
2022-12-03T01:05:31.465Z,4.67
2022-12-03T01:07:58.334Z,8.40
2022-12-03T01:10:25.287Z,7.90
2022-12-03T01:12:52.133Z,7.30
2022-12-03T01:15:19.075Z,7.00
2022-12-03T01:17:45.942Z,8.30
2022-12-03T01:20:13.554Z,6.77
2022-12-03T01:22:40.357Z,8.17
2022-12-03T01:25:07.558Z,6.57
2022-12-03T01:27:34.362Z,6.90
2022-12-03T01:30:01.195Z,3.53
2022-12-03T01:32:28.075Z,7.53
2022-12-03T01:34:56.717Z,6.13
2022-12-03T01:37:26.063Z,6.70
2022-12-03T01:39:53.350Z,6.53
2022-12-03T01:42:28.998Z,6.23
2022-12-03T01:44:58.938Z,4.77
2022-12-03T01:47:33.749Z,6.07
2022-12-03T01:50:17.708Z,4.80
2022-12-03T01:52:45.212Z,4.33
2022-12-03T01:55:17.915Z,3.57
2022-12-03T01:57:52.538Z,5.50
2022-12-03T02:00:23.386Z,5.80
2022-12-03T02:02:55.932Z,2.97
2022-12-03T02:05:31.226Z,5.13
2022-12-03T02:07:59.456Z,5.23
2022-12-03T02:10:38.041Z,5.60
2022-12-03T02:13:10.628Z,4.90
2022-12-03T02:15:40.360Z,6.30
2022-12-03T02:18:09.594Z,4.27
2022-12-03T02:21:12.117Z,3.30
2022-12-03T02:24:00.828Z,5.50
2022-12-03T02:26:27.848Z,6.60
2022-12-03T02:28:54.699Z,4.17
2022-12-03T02:31:22.473Z,3.93
2022-12-03T02:33:49.877Z,5.47
2022-12-03T02:36:17.055Z,4.23
2022-12-03T02:38:45.949Z,5.50
2022-12-03T02:41:36.877Z,5.73
2022-12-03T02:44:08.089Z,5.47
2022-12-03T02:46:35.966Z,6.90
2022-12-03T02:49:05.507Z,4.90
2022-12-03T02:51:34.715Z,3.30
2022-12-03T02:54:03.173Z,5.30
2022-12-03T02:56:33.020Z,4.57
2022-12-03T02:59:05.119Z,4.47
2022-12-03T03:01:32.603Z,4.43
2022-12-03T03:04:00.648Z,6.10
2022-12-03T03:06:27.452Z,5.60
2022-12-03T03:08:54.458Z,5.83
2022-12-03T03:11:21.381Z,2.77
2022-12-03T03:13:48.277Z,2.27
2022-12-03T03:16:15.282Z,3.83
2022-12-03T03:18:42.606Z,5.73
2022-12-03T03:21:09.619Z,2.87
2022-12-03T03:23:36.460Z,4.53
2022-12-03T03:26:10.340Z,5.67
2022-12-03T03:28:46.605Z,4.00
2022-12-03T03:31:17.538Z,5.50
2022-12-03T03:33:49.420Z,4.63
2022-12-03T03:36:18.156Z,4.83
2022-12-03T03:38:46.115Z,3.87
2022-12-03T03:41:14.996Z,4.30
2022-12-03T03:43:45.004Z,3.93
2022-12-03T03:46:13.572Z,4.13
2022-12-03T03:48:43.528Z,3.33
2022-12-03T03:51:12.450Z,1.37
2022-12-03T03:53:44.118Z,5.00
2022-12-03T03:56:11.732Z,4.30
2022-12-03T03:58:38.962Z,5.20
2022-12-03T04:01:06.185Z,3.30
2022-12-03T04:03:34.372Z,5.50
2022-12-03T04:06:01.209Z,3.03
2022-12-03T04:08:28.414Z,2.23
2022-12-03T04:11:13.842Z,3.43
2022-12-03T04:13:40.611Z,4.00
2022-12-03T04:16:07.967Z,4.20
2022-12-03T04:18:43.561Z,3.30
2022-12-03T04:21:35.800Z,4.47
2022-12-03T04:24:04.047Z,5.70
2022-12-03T04:26:49.350Z,5.90
2022-12-03T04:29:16.243Z,4.37
2022-12-03T04:32:02.421Z,5.50
2022-12-03T04:34:47.947Z,3.87
2022-12-03T04:37:14.837Z,4.10
2022-12-03T04:39:41.651Z,5.13
2022-12-03T04:42:08.806Z,3.47
2022-12-03T04:44:36.447Z,5.27
2022-12-03T04:47:06.054Z,4.27
2022-12-03T04:49:35.085Z,5.47
2022-12-03T04:52:02.177Z,4.03
2022-12-03T04:54:29.127Z,4.53
2022-12-03T04:56:56.177Z,5.70
2022-12-03T04:59:23.192Z,4.90
2022-12-03T05:01:50.117Z,4.40
2022-12-03T05:04:17.218Z,5.27
2022-12-03T05:06:44.454Z,5.17
2022-12-03T05:09:11.991Z,5.83
2022-12-03T05:11:40.286Z,4.77
2022-12-03T05:14:08.647Z,3.73
2022-12-03T05:16:36.635Z,5.57
2022-12-03T05:19:06.260Z,5.40
2022-12-03T05:21:33.413Z,3.90
2022-12-03T05:24:00.298Z,5.53
2022-12-03T05:26:27.198Z,5.13
2022-12-03T05:28:53.959Z,4.80
2022-12-03T05:31:20.874Z,5.00
2022-12-03T05:33:47.746Z,5.80
2022-12-03T05:36:14.533Z,5.40
2022-12-03T05:38:41.315Z,3.53
2022-12-03T05:41:28.066Z,6.23
2022-12-03T05:43:54.923Z,4.10
2022-12-03T05:46:21.766Z,4.00
2022-12-03T05:48:48.657Z,5.93
2022-12-03T05:51:15.581Z,4.47
2022-12-03T05:53:42.395Z,3.47
2022-12-03T05:56:09.240Z,4.90
2022-12-03T05:58:36.048Z,5.07
2022-12-03T06:01:02.909Z,6.60
2022-12-03T06:03:29.795Z,6.57
2022-12-03T06:05:56.723Z,6.20
2022-12-03T06:08:23.571Z,6.37
2022-12-03T06:10:51.083Z,5.70
2022-12-03T06:13:17.902Z,5.93
2022-12-03T06:15:44.836Z,8.17
2022-12-03T06:18:12.045Z,6.07
2022-12-03T06:20:39.424Z,6.53
2022-12-03T06:23:06.287Z,4.83
2022-12-03T06:25:33.078Z,6.90
2022-12-03T06:27:59.853Z,6.20
2022-12-03T06:30:26.658Z,4.43
2022-12-03T06:32:53.392Z,4.77
2022-12-03T06:35:20.152Z,6.60
2022-12-03T06:37:46.960Z,3.77
2022-12-03T06:40:14.197Z,5.17
2022-12-03T06:42:40.975Z,6.80
2022-12-03T06:45:08.584Z,6.73
2022-12-03T06:47:35.433Z,7.47
2022-12-03T06:50:02.259Z,8.00
2022-12-03T06:52:29.025Z,7.27
2022-12-03T06:54:56.221Z,7.30
2022-12-03T06:57:23.271Z,6.90
2022-12-03T06:59:50.179Z,6.77
2022-12-03T07:02:17.043Z,6.83
2022-12-03T07:04:52.973Z,7.53
2022-12-03T07:07:19.932Z,7.70
2022-12-03T07:09:46.790Z,6.43
2022-12-03T07:12:13.552Z,6.33
2022-12-03T07:14:40.338Z,4.43
2022-12-03T07:17:07.094Z,3.63
2022-12-03T07:19:33.962Z,6.00
2022-12-03T07:22:01.215Z,8.13
2022-12-03T07:24:28.738Z,7.33
2022-12-03T07:26:55.951Z,8.00
2022-12-03T07:29:22.819Z,8.13
2022-12-03T07:31:49.757Z,7.90
2022-12-03T07:34:16.659Z,7.73
2022-12-03T07:36:43.714Z,7.70
2022-12-03T07:39:10.760Z,7.40
2022-12-03T07:41:37.577Z,7.87
2022-12-03T07:44:07.798Z,7.07
2022-12-03T07:46:39.307Z,8.47
2022-12-03T07:49:06.223Z,7.03
2022-12-03T07:51:33.027Z,7.33
2022-12-03T07:53:59.830Z,7.30
2022-12-03T07:56:26.617Z,7.57
2022-12-03T07:58:53.380Z,7.17
2022-12-03T08:01:20.307Z,4.77
2022-12-03T08:03:47.121Z,3.33
2022-12-03T08:06:14.110Z,8.00
2022-12-03T08:08:40.921Z,5.90
2022-12-03T08:11:16.907Z,5.63
2022-12-03T08:13:43.933Z,7.67
2022-12-03T08:18:58.664Z,5.10
2022-12-03T08:21:35.496Z,8.47
2022-12-03T08:24:15.045Z,5.63
2022-12-03T08:26:44.323Z,7.30
2022-12-03T08:29:15.533Z,8.07
2022-12-03T08:31:47.258Z,9.87
2022-12-03T08:34:37.446Z,8.10
2022-12-03T08:37:16.501Z,8.27
2022-12-03T08:39:49.131Z,6.90
2022-12-03T08:42:42.194Z,8.97
2022-12-03T08:45:40.442Z,2.80
2022-12-03T08:48:30.377Z,3.30
2022-12-03T08:51:02.031Z,3.40
2022-12-03T08:53:55.428Z,3.83
2022-12-03T08:56:29.973Z,8.13
2022-12-03T08:59:02.464Z,9.63
2022-12-03T09:01:44.353Z,9.17
2022-12-03T09:04:21.195Z,10.57
2022-12-03T09:06:48.404Z,4.67
2022-12-03T09:09:15.320Z,7.97
2022-12-03T09:11:45.750Z,4.53
2022-12-03T09:14:18.354Z,8.63
2022-12-03T09:16:45.795Z,7.90
2022-12-03T09:19:12.647Z,8.97
2022-12-03T09:21:43.291Z,6.00
2022-12-03T09:24:10.225Z,8.03
2022-12-03T09:26:37.019Z,6.40
2022-12-03T09:29:08.914Z,5.93
2022-12-03T09:31:38.608Z,8.10
2022-12-03T09:34:07.085Z,9.40
2022-12-03T09:36:34.195Z,9.47
2022-12-03T09:39:01.003Z,9.40
2022-12-03T09:41:28.666Z,9.67
2022-12-03T09:44:05.237Z,5.13
2022-12-03T09:46:35.860Z,8.93
2022-12-03T09:49:12.225Z,7.60
2022-12-03T09:51:40.936Z,9.43
2022-12-03T09:54:09.986Z,6.00
2022-12-03T09:56:38.038Z,10.23
2022-12-03T09:59:14.481Z,10.53
2022-12-03T10:01:41.976Z,9.23
2022-12-03T10:04:09.193Z,11.67
2022-12-03T10:06:40.968Z,10.20
2022-12-03T10:09:13.077Z,8.33
2022-12-03T10:11:40.311Z,11.07
2022-12-03T10:14:07.171Z,10.73
2022-12-03T10:16:37.027Z,10.57
2022-12-03T10:19:03.939Z,11.43
2022-12-03T10:21:37.011Z,11.70
2022-12-03T10:24:21.821Z,11.87
2022-12-03T10:26:52.189Z,11.87
2022-12-03T10:29:33.586Z,9.30
2022-12-03T10:32:11.757Z,11.20
2022-12-03T10:34:41.327Z,10.83
2022-12-03T10:37:20.903Z,9.80
2022-12-03T10:40:09.309Z,10.43
2022-12-03T10:42:39.983Z,10.57
2022-12-03T10:45:23.113Z,6.97
2022-12-03T10:48:10.216Z,11.00
2022-12-03T10:50:38.351Z,9.53
2022-12-03T10:53:05.384Z,7.93
2022-12-03T10:55:39.664Z,8.23
2022-12-03T10:58:15.436Z,11.87
2022-12-03T11:00:42.233Z,11.67
2022-12-03T11:03:20.127Z,11.27
2022-12-03T11:05:47.447Z,11.20
2022-12-03T11:08:43.355Z,10.57
2022-12-03T11:11:26.882Z,7.10
2022-12-03T11:14:00.468Z,7.60
2022-12-03T11:16:39.535Z,12.03
2022-12-03T11:19:17.781Z,8.63
2022-12-03T11:22:03.399Z,11.90
2022-12-03T11:24:34.941Z,11.67
2022-12-03T11:27:01.630Z,10.63
2022-12-03T11:29:50.269Z,12.27
2022-12-03T11:32:43.101Z,6.30
2022-12-03T11:35:28.544Z,12.27
2022-12-03T11:37:55.420Z,12.20
2022-12-03T11:40:22.090Z,11.67
2022-12-03T11:42:49.500Z,6.53
2022-12-03T11:45:35.236Z,7.30
2022-12-03T11:48:03.770Z,8.17
2022-12-03T11:50:49.656Z,10.93
2022-12-03T11:53:25.803Z,9.83
2022-12-03T11:56:09.029Z,6.23
2022-12-03T11:58:42.309Z,11.97
2022-12-03T12:01:09.801Z,11.27
2022-12-03T12:03:43.514Z,10.77
2022-12-03T12:06:17.295Z,11.80
2022-12-03T12:08:52.970Z,12.13
2022-12-03T12:11:25.997Z,11.20
2022-12-03T12:13:57.083Z,10.70
2022-12-03T12:16:55.047Z,11.07
2022-12-03T12:19:49.758Z,10.70
2022-12-03T12:22:25.584Z,10.73
2022-12-03T12:24:57.027Z,11.37
2022-12-03T12:27:49.298Z,10.90
2022-12-03T12:30:20.131Z,11.93
2022-12-03T12:32:51.377Z,11.57
2022-12-03T12:35:30.725Z,9.60
2022-12-03T12:38:12.107Z,10.07
2022-12-03T12:40:45.644Z,9.50
2022-12-03T12:43:25.736Z,13.10
2022-12-03T12:46:18.793Z,6.53
2022-12-03T12:48:48.414Z,12.60
2022-12-03T12:51:20.463Z,8.43
2022-12-03T12:53:47.823Z,11.70
2022-12-03T12:56:20.359Z,9.77
2022-12-03T12:58:47.148Z,11.10
2022-12-03T13:01:29.161Z,11.97
2022-12-03T13:03:57.967Z,11.40
2022-12-03T13:06:31.436Z,10.37
2022-12-03T13:09:01.018Z,11.07
2022-12-03T13:11:41.182Z,9.03
2022-12-03T13:14:24.560Z,4.60
2022-12-03T13:16:54.889Z,11.10
2022-12-03T13:19:25.750Z,7.63
2022-12-03T13:21:58.550Z,7.20
2022-12-03T13:24:39.568Z,9.70
2022-12-03T13:27:18.125Z,9.93
2022-12-03T13:29:48.936Z,9.23
2022-12-03T13:32:33.391Z,7.23
2022-12-03T13:35:09.521Z,9.93
2022-12-03T13:37:37.302Z,9.33
2022-12-03T13:40:34.920Z,8.97
2022-12-03T13:43:12.122Z,10.00
2022-12-03T13:45:43.302Z,9.20
2022-12-03T13:48:23.346Z,9.67
2022-12-03T13:50:52.521Z,8.40
2022-12-03T13:53:34.167Z,8.80
2022-12-03T13:56:23.925Z,10.73
2022-12-03T13:58:50.726Z,9.17
2022-12-03T14:01:17.588Z,9.60
2022-12-03T14:03:44.501Z,7.43
2022-12-03T14:06:11.279Z,8.90
2022-12-03T14:08:38.126Z,7.40
2022-12-03T14:11:04.933Z,8.30
2022-12-03T14:13:31.675Z,9.17
2022-12-03T14:15:58.497Z,10.07
2022-12-03T14:18:25.372Z,10.33
2022-12-03T14:20:52.083Z,10.47
2022-12-03T14:23:18.809Z,7.13
2022-12-03T14:25:45.576Z,9.17
2022-12-03T14:28:12.394Z,9.97
2022-12-03T14:30:39.162Z,9.60
2022-12-03T14:33:05.966Z,8.40
2022-12-03T14:35:32.718Z,8.73
2022-12-03T14:37:59.573Z,8.00
2022-12-03T14:40:27.152Z,9.47
2022-12-03T14:42:53.968Z,7.07
2022-12-03T14:45:20.890Z,8.47
2022-12-03T14:47:47.629Z,9.00
2022-12-03T14:50:14.733Z,9.47
2022-12-03T14:52:41.771Z,10.20
2022-12-03T14:55:09.152Z,10.20
2022-12-03T14:57:35.899Z,10.23
2022-12-03T15:00:02.797Z,8.57
2022-12-03T15:02:30.248Z,9.53
2022-12-03T15:04:57.223Z,7.27
2022-12-03T15:07:24.224Z,9.53
2022-12-03T15:09:51.170Z,9.37
2022-12-03T15:12:18.040Z,9.93
2022-12-03T15:14:44.955Z,7.57
2022-12-03T15:17:11.920Z,10.10
2022-12-03T15:19:38.873Z,10.77
2022-12-03T15:22:05.767Z,10.57
2022-12-03T15:24:32.793Z,10.40
2022-12-03T15:26:59.859Z,9.93
2022-12-03T15:29:26.897Z,10.10
2022-12-03T15:31:53.796Z,10.87
2022-12-03T15:34:23.134Z,10.70
2022-12-03T15:36:50.909Z,10.70
2022-12-03T15:39:17.793Z,10.20
2022-12-03T15:41:44.788Z,10.70
2022-12-03T15:44:11.744Z,10.87
2022-12-03T15:46:38.763Z,9.27
2022-12-03T15:49:05.661Z,10.50
2022-12-03T15:51:32.685Z,8.40
2022-12-03T15:53:59.794Z,9.57
2022-12-03T15:56:29.961Z,9.77
2022-12-03T15:58:56.815Z,10.77
2022-12-03T16:01:23.695Z,10.73
2022-12-03T16:03:50.612Z,8.97
2022-12-03T16:06:19.621Z,8.07
2022-12-03T16:08:46.366Z,11.40
2022-12-03T16:11:13.105Z,11.33
2022-12-03T16:13:39.877Z,12.13
2022-12-03T16:16:06.959Z,10.57
2022-12-03T16:18:33.916Z,9.67
2022-12-03T16:21:00.722Z,11.47
2022-12-03T16:23:27.563Z,11.30
2022-12-03T16:25:54.276Z,11.57
2022-12-03T16:28:21.050Z,10.70
2022-12-03T16:30:47.980Z,13.07
2022-12-03T16:33:14.859Z,10.63
2022-12-03T16:35:41.619Z,8.33
2022-12-03T16:38:08.375Z,11.60
2022-12-03T16:40:35.180Z,7.57
2022-12-03T16:43:06.172Z,8.50
2022-12-03T16:46:02.103Z,12.07
2022-12-03T16:48:30.335Z,6.70
2022-12-03T16:50:57.338Z,13.07
2022-12-03T16:53:24.359Z,10.10
2022-12-03T16:55:51.174Z,11.80
2022-12-03T16:58:21.390Z,12.27
2022-12-03T17:00:49.404Z,9.47
2022-12-03T17:03:17.823Z,9.87
2022-12-03T17:05:46.021Z,9.90
2022-12-03T17:08:14.166Z,12.43
2022-12-03T17:10:42.361Z,11.93
2022-12-03T17:13:10.576Z,13.10
2022-12-03T17:15:39.185Z,9.73
2022-12-03T17:18:07.703Z,12.17
2022-12-03T17:20:35.145Z,12.87
2022-12-03T17:23:02.079Z,13.03
2022-12-03T17:25:30.100Z,13.33
2022-12-03T17:27:56.903Z,12.83
2022-12-03T17:30:23.788Z,11.77
2022-12-03T17:32:50.692Z,11.60
2022-12-03T17:35:18.563Z,12.93
2022-12-03T17:37:45.793Z,11.33
2022-12-03T17:40:16.881Z,12.40
2022-12-03T17:42:43.804Z,12.80
2022-12-03T17:45:11.387Z,12.17
2022-12-03T17:47:39.019Z,12.53
2022-12-03T17:50:07.610Z,10.83
2022-12-03T17:52:34.720Z,11.70
2022-12-03T17:55:11.814Z,11.60
2022-12-03T17:57:39.977Z,11.23
2022-12-03T18:00:07.942Z,12.00
2022-12-03T18:02:34.858Z,9.30
2022-12-03T18:05:01.934Z,11.77
2022-12-03T18:07:28.739Z,12.80
2022-12-03T18:09:55.832Z,12.03
2022-12-03T18:12:22.822Z,13.47
2022-12-03T18:14:49.607Z,9.97
2022-12-03T18:17:16.537Z,11.23
2022-12-03T18:19:43.491Z,11.97
2022-12-03T18:22:10.191Z,11.47
2022-12-03T18:24:37.020Z,11.50
2022-12-03T18:27:04.119Z,10.33
2022-12-03T18:29:30.914Z,10.63
2022-12-03T18:31:57.778Z,11.57
2022-12-03T18:34:24.672Z,12.30
2022-12-03T18:36:51.617Z,6.87
2022-12-03T18:39:34.560Z,11.07
2022-12-03T18:42:01.886Z,10.40
2022-12-03T18:44:31.706Z,10.57
2022-12-03T18:46:59.697Z,11.73
2022-12-03T18:49:26.721Z,9.37
2022-12-03T18:51:58.869Z,10.40
2022-12-03T18:54:31.362Z,11.40
2022-12-03T18:56:58.236Z,10.53
2022-12-03T18:59:25.073Z,11.27
2022-12-03T19:01:52.026Z,9.87
2022-12-03T19:04:18.880Z,10.57
2022-12-03T19:06:45.746Z,10.40
2022-12-03T19:09:13.066Z,12.57
2022-12-03T19:11:40.081Z,12.33
2022-12-03T19:14:09.100Z,11.60
2022-12-03T19:16:36.202Z,12.30
2022-12-03T19:19:03.771Z,11.90
2022-12-03T19:21:33.734Z,11.60
2022-12-03T19:24:23.892Z,7.63
2022-12-03T19:26:48.519Z,11.17
2022-12-03T19:29:15.392Z,12.17
2022-12-03T19:31:42.180Z,10.87
2022-12-03T19:34:09.072Z,11.70
2022-12-03T19:36:35.861Z,10.50
2022-12-03T19:39:03.069Z,13.10
2022-12-03T19:41:30.701Z,10.87
2022-12-03T19:43:58.334Z,13.17
2022-12-03T19:46:31.234Z,7.03
2022-12-03T19:48:58.426Z,11.93
2022-12-03T19:51:38.778Z,12.17
2022-12-03T19:54:08.314Z,12.27
2022-12-03T19:56:35.632Z,11.70
2022-12-03T19:59:03.194Z,11.43
2022-12-03T20:01:33.705Z,11.27
2022-12-03T20:04:03.608Z,8.87
2022-12-03T20:06:39.583Z,9.93
2022-12-03T20:09:12.256Z,8.83
2022-12-03T20:11:41.445Z,11.33
2022-12-03T20:14:16.541Z,14.57
2022-12-03T20:16:45.053Z,13.93
2022-12-03T20:19:16.002Z,13.13
2022-12-03T20:21:43.727Z,13.67
2022-12-03T20:24:15.453Z,15.03
2022-12-03T20:26:43.299Z,13.50
2022-12-03T20:29:10.258Z,11.63
2022-12-03T20:31:37.203Z,14.03
2022-12-03T20:34:04.864Z,13.67
2022-12-03T20:36:32.487Z,12.37
2022-12-03T20:39:02.884Z,12.47
2022-12-03T20:41:30.126Z,14.33
2022-12-03T20:43:57.359Z,12.63
2022-12-03T20:46:29.274Z,13.27
2022-12-03T20:48:56.789Z,12.00
2022-12-03T20:51:30.422Z,14.47
2022-12-03T20:53:59.068Z,10.43
2022-12-03T20:56:33.579Z,13.93
2022-12-03T20:59:07.028Z,14.27
2022-12-03T21:01:35.787Z,9.73
2022-12-03T21:04:04.485Z,9.57
2022-12-03T21:06:34.127Z,12.77
2022-12-03T21:09:01.389Z,15.50
2022-12-03T21:11:32.036Z,13.40
2022-12-03T21:14:00.273Z,14.40
2022-12-03T21:17:06.107Z,13.77
2022-12-03T21:19:20.236Z,11.30
2022-12-03T21:21:47.154Z,10.20
2022-12-03T21:24:14.486Z,13.50
2022-12-03T21:26:41.412Z,14.33
2022-12-03T21:29:08.664Z,13.17
2022-12-03T21:31:37.227Z,10.30
2022-12-03T21:34:05.060Z,12.43
2022-12-03T21:36:32.166Z,11.80
2022-12-03T21:38:58.925Z,12.50
2022-12-03T21:41:25.884Z,10.77
2022-12-03T21:43:52.861Z,13.77
2022-12-03T21:47:10.255Z,11.53
2022-12-03T21:49:06.886Z,11.47
2022-12-03T21:51:33.772Z,10.07
2022-12-03T21:54:00.646Z,9.77
2022-12-03T21:56:30.256Z,9.53
2022-12-03T21:58:57.329Z,11.23
2022-12-03T22:01:25.037Z,10.70
2022-12-03T22:03:52.412Z,10.40
2022-12-03T22:06:19.623Z,11.67
2022-12-03T22:08:47.721Z,11.43
2022-12-03T22:11:24.711Z,11.13
2022-12-03T22:13:51.652Z,6.20
2022-12-03T22:16:22.330Z,7.67
2022-12-03T22:18:49.662Z,10.80
2022-12-03T22:21:19.788Z,12.00
2022-12-03T22:23:46.693Z,12.20
2022-12-03T22:26:17.436Z,10.13
2022-12-03T22:28:46.332Z,10.33
2022-12-03T22:31:14.048Z,12.23
2022-12-03T22:33:41.090Z,12.53
2022-12-03T22:36:19.646Z,12.53
2022-12-03T22:38:48.497Z,7.30
2022-12-03T22:41:16.201Z,9.87
2022-12-03T22:43:44.605Z,6.90
2022-12-03T22:46:12.851Z,12.27
2022-12-03T22:48:42.755Z,12.07
2022-12-03T22:51:25.162Z,11.93
2022-12-03T22:53:57.984Z,7.90
2022-12-03T22:56:26.753Z,11.37
2022-12-03T22:58:53.483Z,12.27
2022-12-03T23:01:25.913Z,10.30
2022-12-03T23:03:53.011Z,11.03
2022-12-03T23:06:21.771Z,11.83
2022-12-03T23:08:48.993Z,11.13
2022-12-03T23:11:16.608Z,10.03
2022-12-03T23:13:43.383Z,11.90
2022-12-03T23:16:17.373Z,9.43
2022-12-03T23:18:44.712Z,9.53
2022-12-03T23:21:17.205Z,10.83
2022-12-03T23:23:43.991Z,10.43
2022-12-03T23:26:13.246Z,10.83
2022-12-03T23:28:43.027Z,5.43
2022-12-03T23:31:26.861Z,6.07
2022-12-03T23:33:54.683Z,11.37
2022-12-03T23:36:23.776Z,6.97
2022-12-03T23:38:50.840Z,10.47
2022-12-03T23:41:21.320Z,10.47
2022-12-03T23:43:49.036Z,13.23
2022-12-03T23:46:20.722Z,9.33
2022-12-03T23:48:47.986Z,12.57
2022-12-03T23:51:19.405Z,9.93
2022-12-03T23:53:47.112Z,9.17
2022-12-03T23:56:21.774Z,11.30
2022-12-03T23:58:49.053Z,9.97
